createdAt,value
2023-05-08T00:02:10.066Z,3.50
2023-05-08T00:07:13.172Z,3.47
2023-05-08T00:12:16.185Z,3.42
2023-05-08T00:17:19.285Z,3.42
2023-05-08T00:22:22.495Z,3.45
2023-05-08T00:27:25.626Z,3.49
2023-05-08T00:32:29.291Z,3.49
2023-05-08T00:37:32.422Z,3.49
2023-05-08T00:42:35.320Z,3.46
2023-05-08T00:47:38.877Z,3.37
2023-05-08T00:52:41.900Z,3.23
2023-05-08T00:57:46.886Z,3.14
2023-05-08T01:02:50.266Z,3.11
2023-05-08T01:07:53.404Z,3.05
2023-05-08T01:13:11.906Z,2.99
2023-05-08T01:18:18.158Z,2.92
2023-05-08T01:23:39.696Z,2.84
2023-05-08T01:28:45.865Z,2.79
2023-05-08T01:33:57.038Z,2.74
2023-05-08T01:39:09.385Z,2.72
2023-05-08T01:44:24.574Z,2.67
2023-05-08T01:49:30.342Z,2.62
2023-05-08T01:54:36.622Z,2.61
2023-05-08T01:59:41.882Z,2.60
2023-05-08T02:04:45.082Z,2.61
2023-05-08T02:09:48.808Z,2.61
2023-05-08T02:14:53.555Z,2.58
2023-05-08T02:19:58.393Z,2.54
2023-05-08T02:25:01.501Z,2.49
2023-05-08T02:30:04.606Z,2.44
2023-05-08T02:35:08.582Z,2.37
2023-05-08T02:40:13.341Z,2.31
2023-05-08T02:45:17.004Z,2.25
2023-05-08T02:50:23.376Z,2.20
2023-05-08T02:55:46.551Z,2.19
2023-05-08T03:00:54.164Z,2.19
2023-05-08T03:05:58.289Z,2.20
2023-05-08T03:11:15.419Z,2.21
2023-05-08T03:16:21.321Z,2.23
2023-05-08T03:21:26.957Z,2.26
2023-05-08T03:26:30.283Z,2.29
2023-05-08T03:31:34.251Z,2.34
2023-05-08T03:36:37.400Z,2.40
2023-05-08T03:41:40.500Z,2.50
2023-05-08T03:46:45.025Z,2.64
2023-05-08T03:51:48.455Z,2.90
2023-05-08T03:56:54.668Z,3.64
2023-05-08T04:02:10.422Z,5.02
2023-05-08T04:07:19.400Z,6.68
2023-05-08T04:12:25.260Z,8.24
2023-05-08T04:17:35.065Z,9.69
2023-05-08T04:22:39.667Z,11.13
2023-05-08T04:27:44.016Z,12.23
2023-05-08T04:32:48.256Z,13.32
2023-05-08T04:37:51.541Z,14.20
2023-05-08T04:42:54.544Z,15.08
2023-05-08T04:47:57.607Z,15.88
2023-05-08T04:53:00.763Z,16.36
2023-05-08T04:58:03.862Z,17.14
2023-05-08T05:03:06.832Z,18.06
2023-05-08T05:08:09.871Z,18.77
2023-05-08T05:13:12.988Z,19.50
2023-05-08T05:18:16.188Z,20.12
2023-05-08T05:23:19.275Z,20.71
2023-05-08T05:28:22.281Z,21.39
2023-05-08T05:33:25.288Z,22.20
2023-05-08T05:38:28.187Z,22.90
2023-05-08T05:43:32.689Z,23.49
2023-05-08T05:48:36.139Z,24.17
2023-05-08T05:53:39.236Z,24.86
2023-05-08T05:58:45.212Z,25.66
2023-05-08T06:03:48.589Z,26.12
2023-05-08T06:08:51.935Z,26.80
2023-05-08T06:13:55.248Z,27.36
2023-05-08T06:18:58.361Z,28.06
2023-05-08T06:24:01.869Z,28.71
2023-05-08T06:29:04.872Z,29.48
2023-05-08T06:34:08.296Z,29.97
2023-05-08T06:39:11.305Z,30.58
2023-05-08T06:44:15.109Z,30.99
2023-05-08T06:49:18.122Z,31.17
2023-05-08T06:54:21.432Z,31.54
2023-05-08T06:59:24.636Z,31.75
2023-05-08T07:04:28.182Z,31.35
2023-05-08T07:09:32.177Z,31.55
2023-05-08T07:14:35.194Z,32.21
2023-05-08T07:19:38.743Z,32.63
2023-05-08T07:24:41.802Z,32.49
2023-05-08T07:29:44.805Z,32.80
2023-05-08T07:34:48.016Z,32.88
2023-05-08T07:39:51.844Z,32.90
2023-05-08T07:44:55.445Z,33.40
2023-05-08T07:49:58.564Z,33.81
2023-05-08T07:55:01.874Z,34.04
2023-05-08T08:00:08.949Z,34.15
2023-05-08T08:05:12.679Z,34.46
2023-05-08T08:10:15.989Z,33.99
2023-05-08T08:15:19.010Z,33.84
2023-05-08T08:20:22.540Z,34.38
2023-05-08T08:25:25.729Z,34.50
2023-05-08T08:30:28.943Z,35.09
2023-05-08T08:35:33.288Z,35.63
2023-05-08T08:40:40.666Z,36.48
2023-05-08T08:45:43.976Z,37.27
2023-05-08T08:50:49.143Z,35.67
2023-05-08T08:55:54.082Z,34.88
2023-05-08T09:00:58.619Z,35.25
2023-05-08T09:06:01.827Z,35.03
2023-05-08T09:11:05.145Z,34.77
2023-05-08T09:16:08.342Z,34.26
2023-05-08T09:21:11.860Z,34.37
2023-05-08T09:26:27.267Z,34.58
2023-05-08T09:31:37.082Z,34.41
2023-05-08T09:36:42.252Z,34.04
2023-05-08T09:41:57.465Z,33.72
2023-05-08T09:47:20.844Z,33.92
2023-05-08T09:52:24.459Z,34.11
2023-05-08T09:57:28.481Z,33.62
2023-05-08T10:02:31.848Z,33.44
2023-05-08T10:07:37.357Z,32.27
2023-05-08T10:12:41.815Z,30.10
2023-05-08T10:17:51.419Z,27.91
2023-05-08T10:22:57.122Z,26.17
2023-05-08T10:28:07.044Z,24.73
2023-05-08T10:33:11.240Z,23.06
2023-05-08T10:38:15.866Z,22.46
2023-05-08T10:43:19.581Z,22.16
2023-05-08T10:48:41.529Z,21.39
2023-05-08T10:53:49.673Z,20.54
2023-05-08T10:58:56.345Z,19.75
2023-05-08T11:03:59.497Z,19.62
2023-05-08T11:09:02.682Z,19.63
2023-05-08T11:14:08.932Z,19.77
2023-05-08T11:19:18.786Z,19.61
2023-05-08T11:24:32.855Z,19.63
2023-05-08T11:29:36.586Z,19.75
2023-05-08T11:34:42.971Z,19.91
2023-05-08T11:39:47.102Z,20.06
2023-05-08T11:44:50.805Z,19.86
2023-05-08T11:49:55.696Z,19.84
2023-05-08T11:55:01.535Z,19.98
2023-05-08T12:00:06.270Z,20.17
2023-05-08T12:05:09.952Z,20.19
2023-05-08T12:10:13.879Z,20.29
2023-05-08T12:15:17.437Z,20.49
2023-05-08T12:20:20.855Z,20.64
2023-05-08T12:25:26.102Z,20.56
2023-05-08T12:30:29.617Z,20.38
2023-05-08T12:35:33.132Z,20.28
2023-05-08T12:40:41.157Z,20.20
2023-05-08T12:45:44.193Z,20.16
2023-05-08T12:50:47.681Z,20.22
2023-05-08T12:55:53.090Z,20.35
2023-05-08T13:01:05.470Z,20.52
2023-05-08T13:06:19.206Z,20.66
2023-05-08T13:11:30.490Z,20.69
2023-05-08T13:16:42.077Z,20.68
2023-05-08T13:21:47.852Z,20.54
2023-05-08T13:26:50.875Z,20.39
2023-05-08T13:31:54.031Z,20.43
2023-05-08T13:36:58.734Z,20.38
2023-05-08T13:42:01.730Z,20.28
2023-05-08T13:47:04.836Z,20.18
2023-05-08T13:52:07.961Z,20.00
2023-05-08T13:57:11.558Z,19.93
2023-05-08T14:02:14.785Z,20.01
2023-05-08T14:07:18.812Z,19.87
2023-05-08T14:12:21.794Z,19.57
2023-05-08T14:17:25.036Z,19.49
2023-05-08T14:22:28.338Z,19.51
2023-05-08T14:27:31.327Z,19.57
2023-05-08T14:32:34.762Z,19.67
2023-05-08T14:37:37.941Z,19.74
2023-05-08T14:42:41.463Z,19.75
2023-05-08T14:47:44.710Z,19.75
2023-05-08T14:52:48.798Z,19.74
2023-05-08T14:57:51.905Z,19.73
2023-05-08T15:02:55.358Z,19.71
2023-05-08T15:07:58.422Z,19.69
2023-05-08T15:13:01.755Z,19.69
2023-05-08T15:18:05.340Z,19.68
2023-05-08T15:23:08.982Z,19.64
2023-05-08T15:28:11.970Z,19.56
2023-05-08T15:33:15.282Z,19.47
2023-05-08T15:38:18.294Z,19.40
2023-05-08T15:43:21.502Z,19.28
2023-05-08T15:48:24.717Z,19.19
2023-05-08T15:53:27.806Z,19.13
2023-05-08T15:58:30.813Z,19.03
2023-05-08T16:03:34.389Z,18.89
2023-05-08T16:08:37.947Z,18.77
2023-05-08T16:13:40.946Z,18.67
2023-05-08T16:18:44.364Z,18.58
2023-05-08T16:23:47.801Z,18.48
2023-05-08T16:28:51.389Z,18.37
2023-05-08T16:33:54.495Z,18.16
2023-05-08T16:38:57.706Z,17.99
2023-05-08T16:44:01.019Z,17.89
2023-05-08T16:49:04.120Z,17.79
2023-05-08T16:54:07.232Z,17.73
2023-05-08T16:59:10.341Z,17.66
2023-05-08T17:04:13.533Z,17.56
2023-05-08T17:09:18.592Z,17.47
2023-05-08T17:14:21.808Z,17.37
2023-05-08T17:19:25.623Z,17.28
2023-05-08T17:24:29.977Z,17.16
2023-05-08T17:29:33.686Z,17.02
2023-05-08T17:34:37.738Z,16.89
2023-05-08T17:39:40.909Z,16.75
2023-05-08T17:44:44.046Z,16.59
2023-05-08T17:49:47.287Z,16.40
2023-05-08T17:54:51.377Z,16.18
2023-05-08T17:59:54.457Z,15.90
2023-05-08T18:04:58.291Z,15.57
2023-05-08T18:10:01.381Z,15.22
2023-05-08T18:15:05.653Z,14.92
2023-05-08T18:20:09.670Z,14.61
2023-05-08T18:25:13.379Z,14.26
2023-05-08T18:30:17.396Z,13.91
2023-05-08T18:35:21.952Z,13.54
2023-05-08T18:40:25.358Z,13.16
2023-05-08T18:45:29.066Z,12.81
2023-05-08T18:50:32.270Z,12.53
2023-05-08T18:55:36.001Z,12.31
2023-05-08T19:00:39.039Z,12.15
2023-05-08T19:05:42.227Z,11.98
2023-05-08T19:10:46.143Z,11.84
2023-05-08T19:15:50.310Z,11.88
2023-05-08T19:20:54.280Z,11.80
2023-05-08T19:25:57.330Z,11.62
2023-05-08T19:31:00.906Z,11.43
2023-05-08T19:36:04.215Z,11.18
2023-05-08T19:41:08.039Z,10.94
2023-05-08T19:46:10.998Z,10.77
2023-05-08T19:51:16.620Z,10.68
2023-05-08T19:56:19.714Z,10.65
2023-05-08T20:01:22.972Z,10.71
2023-05-08T20:06:26.604Z,10.76
2023-05-08T20:11:30.059Z,10.78
2023-05-08T20:16:34.026Z,10.78
2023-05-08T20:21:37.178Z,10.73
2023-05-08T20:26:41.747Z,10.66
2023-05-08T20:31:44.788Z,10.65
2023-05-08T20:36:48.038Z,10.64
2023-05-08T20:41:52.228Z,10.63
2023-05-08T20:46:57.058Z,10.62
2023-05-08T20:52:01.536Z,10.58
2023-05-08T20:57:05.198Z,10.46
2023-05-08T21:02:08.736Z,10.23
2023-05-08T21:07:11.924Z,9.91
2023-05-08T21:12:15.236Z,9.60
2023-05-08T21:17:18.551Z,9.31
2023-05-08T21:22:22.270Z,9.10
2023-05-08T21:27:27.324Z,9.01
2023-05-08T21:32:30.452Z,8.95
2023-05-08T21:37:33.652Z,8.90
2023-05-08T21:42:37.166Z,8.80
2023-05-08T21:47:40.698Z,8.67
2023-05-08T21:52:45.523Z,8.49
2023-05-08T21:57:48.738Z,8.29
2023-05-08T22:02:52.151Z,8.09
2023-05-08T22:07:55.457Z,7.93
2023-05-08T22:12:58.615Z,7.80
2023-05-08T22:18:03.127Z,7.67
2023-05-08T22:23:07.242Z,7.54
2023-05-08T22:28:10.953Z,7.42
2023-05-08T22:33:14.163Z,7.30
2023-05-08T22:38:17.372Z,7.18
2023-05-08T22:43:20.475Z,7.06
2023-05-08T22:48:23.371Z,6.95
2023-05-08T22:53:26.374Z,6.84
2023-05-08T22:58:29.476Z,6.70
2023-05-08T23:03:32.483Z,6.56
2023-05-08T23:08:35.397Z,6.42
2023-05-08T23:13:38.282Z,6.31
2023-05-08T23:18:41.488Z,6.21
2023-05-08T23:23:44.695Z,6.11
2023-05-08T23:28:47.601Z,6.11
2023-05-08T23:33:50.599Z,6.14
2023-05-08T23:38:53.910Z,6.10
2023-05-08T23:43:57.324Z,6.00
2023-05-08T23:49:00.332Z,5.89
2023-05-08T23:54:03.552Z,5.77
2023-05-08T23:59:06.853Z,5.68
